createdAt,value
2018-08-09T00:00:21.401Z,19.47
2018-08-09T00:02:50.102Z,16.83
2018-08-09T00:05:18.821Z,15.47
2018-08-09T00:07:47.533Z,20.60
2018-08-09T00:10:16.305Z,15.20
2018-08-09T00:12:45.354Z,17.17
2018-08-09T00:15:14.235Z,30.33
2018-08-09T00:17:43.498Z,35.07
2018-08-09T00:20:12.566Z,22.63
2018-08-09T00:22:41.329Z,28.17
2018-08-09T00:25:10.062Z,24.30
2018-08-09T00:27:38.766Z,16.30
2018-08-09T00:30:07.933Z,26.77
2018-08-09T00:32:36.777Z,19.00
2018-08-09T00:35:05.620Z,17.40
2018-08-09T00:37:34.328Z,16.70
2018-08-09T00:40:03.125Z,19.30
2018-08-09T00:42:31.839Z,17.60
2018-08-09T00:45:00.556Z,18.40
2018-08-09T00:47:29.334Z,22.07
2018-08-09T00:49:58.060Z,17.53
2018-08-09T00:52:26.813Z,20.07
2018-08-09T00:54:55.531Z,22.43
2018-08-09T00:57:24.402Z,16.93
2018-08-09T00:59:53.174Z,21.77
2018-08-09T01:02:21.885Z,15.50
2018-08-09T01:04:50.585Z,18.27
2018-08-09T01:07:19.324Z,22.53
2018-08-09T01:09:48.034Z,18.83
2018-08-09T01:12:16.821Z,19.70
2018-08-09T01:14:45.532Z,25.17
2018-08-09T01:17:14.267Z,23.53
2018-08-09T01:19:43.004Z,19.80
2018-08-09T01:22:11.762Z,19.97
2018-08-09T01:24:40.534Z,20.90
2018-08-09T01:27:09.910Z,20.90
2018-08-09T01:29:40.005Z,17.07
2018-08-09T01:32:08.762Z,23.70
2018-08-09T01:34:37.480Z,18.37
2018-08-09T01:37:06.204Z,18.63
2018-08-09T01:39:34.894Z,18.50
2018-08-09T01:42:14.785Z,17.00
2018-08-09T01:44:43.619Z,17.53
2018-08-09T01:47:17.823Z,19.73
2018-08-09T01:49:46.547Z,21.03
2018-08-09T01:52:15.536Z,17.93
2018-08-09T01:54:44.257Z,19.73
2018-08-09T01:57:12.985Z,17.97
2018-08-09T01:59:41.722Z,17.97
2018-08-09T02:02:10.429Z,24.90
2018-08-09T02:04:39.219Z,17.00
2018-08-09T02:07:07.906Z,21.43
2018-08-09T02:09:36.604Z,16.90
2018-08-09T02:12:05.797Z,25.43
2018-08-09T02:14:34.553Z,27.60
2018-08-09T02:17:03.253Z,34.30
2018-08-09T02:19:31.974Z,22.93
2018-08-09T02:22:00.674Z,22.47
2018-08-09T02:24:29.404Z,75.73
2018-08-09T02:26:58.125Z,25.90
2018-08-09T02:29:26.859Z,29.87
2018-08-09T02:31:55.629Z,40.17
2018-08-09T02:34:24.368Z,101.37
2018-08-09T02:36:53.114Z,28.73
2018-08-09T02:39:21.903Z,47.63
2018-08-09T02:41:50.663Z,83.93
2018-08-09T02:44:19.415Z,21.13
2018-08-09T02:46:48.238Z,25.50
2018-08-09T02:49:16.946Z,22.77
2018-08-09T02:51:45.718Z,25.97
2018-08-09T02:54:14.576Z,25.60
2018-08-09T02:56:43.323Z,25.40
2018-08-09T02:59:12.099Z,32.70
2018-08-09T03:01:40.856Z,40.87
2018-08-09T03:04:09.605Z,18.30
2018-08-09T03:06:38.330Z,22.20
2018-08-09T03:09:10.157Z,28.33
2018-08-09T03:11:38.898Z,20.83
2018-08-09T03:14:07.665Z,20.83
2018-08-09T03:16:36.402Z,27.77
2018-08-09T03:19:05.113Z,22.40
2018-08-09T03:21:33.896Z,25.20
2018-08-09T03:24:02.665Z,23.67
2018-08-09T03:26:31.398Z,23.97
2018-08-09T03:29:00.118Z,29.80
2018-08-09T03:31:28.821Z,21.93
2018-08-09T03:33:57.568Z,20.50
2018-08-09T03:36:26.283Z,21.83
2018-08-09T03:38:55.013Z,26.90
2018-08-09T03:41:23.721Z,19.53
2018-08-09T03:43:52.476Z,20.57
2018-08-09T03:46:21.390Z,15.83
2018-08-09T03:48:50.193Z,25.60
2018-08-09T03:51:18.946Z,25.60
2018-08-09T03:53:47.683Z,26.70
2018-08-09T03:56:16.447Z,24.40
2018-08-09T03:58:45.222Z,21.70
2018-08-09T04:01:13.949Z,19.50
2018-08-09T04:03:42.657Z,27.07
2018-08-09T04:06:11.385Z,21.33
2018-08-09T04:08:40.143Z,23.70
2018-08-09T04:11:08.928Z,19.43
2018-08-09T04:13:37.699Z,15.33
2018-08-09T04:16:06.555Z,20.57
2018-08-09T04:18:35.266Z,20.87
2018-08-09T04:21:04.047Z,12.37
2018-08-09T04:23:32.750Z,10.93
2018-08-09T04:26:01.491Z,11.00
2018-08-09T04:28:30.222Z,14.50
2018-08-09T04:30:58.960Z,23.53
2018-08-09T04:33:27.704Z,9.33
2018-08-09T04:35:56.512Z,12.07
2018-08-09T04:38:25.388Z,17.47
2018-08-09T04:40:54.105Z,15.47
2018-08-09T04:43:22.902Z,12.43
2018-08-09T04:45:51.610Z,9.00
2018-08-09T04:48:20.426Z,9.83
2018-08-09T04:50:49.215Z,6.90
2018-08-09T04:53:17.972Z,12.17
2018-08-09T04:55:46.754Z,6.73
2018-08-09T04:58:15.517Z,10.30
2018-08-09T05:00:44.265Z,8.20
2018-08-09T05:03:13.026Z,5.43
2018-08-09T05:05:41.740Z,16.43
2018-08-09T05:08:10.451Z,5.90
2018-08-09T05:10:39.224Z,5.60
2018-08-09T05:13:07.950Z,13.17
2018-08-09T05:15:36.723Z,7.23
2018-08-09T05:18:05.561Z,6.10
2018-08-09T05:20:34.260Z,4.77
2018-08-09T05:23:03.005Z,5.03
2018-08-09T05:25:31.755Z,8.00
2018-08-09T05:28:00.523Z,6.57
2018-08-09T05:30:29.247Z,7.23
2018-08-09T05:32:58.016Z,5.23
2018-08-09T05:35:26.730Z,7.37
2018-08-09T05:37:55.461Z,5.10
2018-08-09T05:40:24.239Z,4.63
2018-08-09T05:42:52.956Z,4.73
2018-08-09T05:45:22.134Z,5.80
2018-08-09T05:47:50.968Z,5.90
2018-08-09T05:50:19.689Z,14.40
2018-08-09T05:52:48.532Z,15.67
2018-08-09T05:55:17.254Z,5.30
2018-08-09T05:57:46.017Z,6.83
2018-08-09T06:00:14.898Z,18.27
2018-08-09T06:02:43.657Z,10.80
2018-08-09T06:05:12.385Z,5.53
2018-08-09T06:07:41.096Z,10.37
2018-08-09T06:10:09.861Z,10.93
2018-08-09T06:12:38.597Z,23.53
2018-08-09T06:15:07.353Z,11.67
2018-08-09T06:17:36.094Z,12.07
2018-08-09T06:20:05.605Z,9.10
2018-08-09T06:22:34.358Z,6.37
2018-08-09T06:25:03.057Z,6.07
2018-08-09T06:27:31.813Z,4.20
2018-08-09T06:30:00.533Z,10.35
2018-08-09T06:32:29.252Z,6.78
2018-08-09T06:34:57.993Z,5.33
2018-08-09T06:37:26.715Z,5.22
2018-08-09T06:39:55.418Z,6.10
2018-08-09T06:42:25.056Z,10.20
2018-08-09T06:44:54.320Z,6.22
2018-08-09T06:47:23.152Z,5.12
2018-08-09T06:49:51.997Z,20.62
2018-08-09T06:52:20.701Z,20.50
2018-08-09T06:54:49.450Z,20.80
2018-08-09T06:57:18.160Z,28.80
2018-08-09T06:59:46.888Z,39.92
2018-08-09T07:02:15.608Z,25.60
2018-08-09T07:04:44.674Z,40.03
2018-08-09T07:07:13.425Z,25.45
2018-08-09T07:09:42.192Z,16.97
2018-08-09T07:12:10.897Z,18.00
2018-08-09T07:14:39.635Z,33.53
2018-08-09T07:17:08.375Z,25.20
2018-08-09T07:19:37.209Z,14.70
2018-08-09T07:22:06.192Z,16.60
2018-08-09T07:24:34.933Z,18.50
2018-08-09T07:27:03.645Z,20.43
2018-08-09T07:29:32.346Z,14.63
2018-08-09T07:32:01.085Z,7.92
2018-08-09T07:34:29.812Z,9.38
2018-08-09T07:36:58.521Z,9.23
2018-08-09T07:39:27.313Z,7.40
2018-08-09T07:41:55.982Z,5.78
2018-08-09T07:44:24.740Z,17.85
2018-08-09T07:46:53.444Z,10.08
2018-08-09T07:49:22.387Z,6.17
2018-08-09T07:51:51.296Z,16.97
2018-08-09T07:54:20.078Z,6.87
2018-08-09T07:56:48.953Z,5.35
2018-08-09T07:59:17.705Z,13.32
2018-08-09T08:01:46.421Z,7.60
2018-08-09T08:04:15.147Z,4.70
2018-08-09T08:06:43.865Z,2.95
2018-08-09T08:09:13.165Z,3.45
2018-08-09T08:11:41.868Z,3.95
2018-08-09T08:14:10.582Z,4.05
2018-08-09T08:16:39.305Z,10.98
2018-08-09T08:19:08.033Z,4.75
2018-08-09T08:21:37.635Z,3.50
2018-08-09T08:24:06.430Z,14.93
2018-08-09T08:26:35.151Z,5.75
2018-08-09T08:29:03.874Z,4.28
2018-08-09T08:31:32.576Z,3.55
2018-08-09T08:34:01.390Z,7.85
2018-08-09T08:36:30.117Z,5.80
2018-08-09T08:38:58.816Z,5.60
2018-08-09T08:41:27.622Z,10.05
2018-08-09T08:43:56.382Z,7.08
2018-08-09T08:46:25.197Z,9.55
2018-08-09T08:48:54.281Z,2.08
2018-08-09T08:51:23.010Z,1.87
2018-08-09T08:53:51.758Z,8.33
2018-08-09T08:56:20.489Z,3.05
2018-08-09T08:58:49.335Z,2.12
2018-08-09T09:01:18.344Z,4.90
2018-08-09T09:03:47.109Z,15.85
2018-08-09T09:06:15.861Z,3.33
2018-08-09T09:08:44.754Z,24.98
2018-08-09T09:11:13.490Z,3.40
2018-08-09T09:13:42.235Z,3.87
2018-08-09T09:16:10.951Z,7.62
2018-08-09T09:18:43.275Z,2.60
2018-08-09T09:21:18.288Z,5.45
2018-08-09T09:23:53.899Z,3.42
2018-08-09T09:26:22.923Z,7.22
2018-08-09T09:28:51.634Z,14.90
2018-08-09T09:31:20.385Z,4.80
2018-08-09T09:33:49.125Z,4.40
2018-08-09T09:36:17.940Z,8.33
2018-08-09T09:38:46.832Z,4.60
2018-08-09T09:41:16.962Z,1.90
2018-08-09T09:43:45.942Z,3.60
2018-08-09T09:46:14.681Z,10.18
2018-08-09T09:48:43.401Z,1.98
2018-08-09T09:51:12.120Z,4.17
2018-08-09T09:53:40.966Z,8.95
2018-08-09T09:56:09.697Z,9.10
2018-08-09T09:58:38.459Z,2.22
2018-08-09T10:01:12.321Z,2.10
2018-08-09T10:03:41.098Z,2.30
2018-08-09T10:06:09.832Z,9.88
2018-08-09T10:08:38.574Z,7.28
2018-08-09T10:11:07.346Z,15.00
2018-08-09T10:13:36.111Z,5.87
2018-08-09T10:16:04.880Z,1.90
2018-08-09T10:18:33.634Z,6.15
2018-08-09T10:21:02.423Z,3.08
2018-08-09T10:23:31.187Z,2.62
2018-08-09T10:25:59.942Z,6.30
2018-08-09T10:28:28.689Z,7.90
2018-08-09T10:30:57.698Z,4.22
2018-08-09T10:33:26.434Z,1.62
2018-08-09T10:35:55.170Z,2.90
2018-08-09T10:38:23.942Z,1.45
2018-08-09T10:40:52.670Z,1.60
2018-08-09T10:43:21.395Z,3.37
2018-08-09T10:45:50.135Z,6.92
2018-08-09T10:48:18.881Z,2.35
2018-08-09T10:50:47.632Z,2.42
2018-08-09T10:53:16.456Z,15.60
2018-08-09T10:55:45.363Z,4.87
2018-08-09T10:58:14.205Z,2.08
2018-08-09T11:00:43.282Z,4.40
2018-08-09T11:03:12.044Z,2.42
2018-08-09T11:05:40.818Z,8.33
2018-08-09T11:08:09.646Z,3.45
2018-08-09T11:10:38.449Z,0.95
2018-08-09T11:13:07.200Z,4.87
2018-08-09T11:15:35.932Z,2.80
2018-08-09T11:18:04.713Z,5.25
2018-08-09T11:20:33.448Z,3.15
2018-08-09T11:23:02.265Z,8.40
2018-08-09T11:25:31.007Z,1.65
2018-08-09T11:28:00.008Z,2.60
2018-08-09T11:30:28.809Z,1.67
2018-08-09T11:32:57.555Z,3.50
2018-08-09T11:35:26.371Z,2.05
2018-08-09T11:37:55.075Z,9.50
2018-08-09T11:40:23.791Z,1.70
2018-08-09T11:42:52.560Z,1.77
2018-08-09T11:45:21.260Z,6.42
2018-08-09T11:47:50.017Z,1.50
2018-08-09T11:50:19.013Z,3.33
2018-08-09T11:52:47.726Z,4.78
2018-08-09T11:55:16.729Z,1.70
2018-08-09T11:57:45.470Z,5.58
2018-08-09T12:00:14.735Z,5.05
2018-08-09T12:02:43.440Z,2.90
2018-08-09T12:05:12.202Z,2.52
2018-08-09T12:07:40.902Z,4.87
2018-08-09T12:10:09.690Z,4.20
2018-08-09T12:12:38.526Z,3.55
2018-08-09T12:15:07.411Z,4.80
2018-08-09T12:17:36.146Z,1.50
2018-08-09T12:20:05.357Z,8.85
2018-08-09T12:22:34.069Z,5.08
2018-08-09T12:25:02.900Z,3.42
2018-08-09T12:27:31.647Z,1.17
2018-08-09T12:30:00.375Z,6.53
2018-08-09T12:32:29.198Z,2.80
2018-08-09T12:34:57.946Z,9.13
2018-08-09T12:37:26.835Z,3.80
2018-08-09T12:39:55.544Z,1.95
2018-08-09T12:42:24.279Z,1.60
2018-08-09T12:44:53.006Z,2.37
2018-08-09T12:47:21.724Z,1.67
2018-08-09T12:49:50.641Z,8.78
2018-08-09T12:52:19.355Z,1.92
2018-08-09T12:54:48.094Z,6.12
2018-08-09T12:57:17.092Z,1.77
2018-08-09T12:59:45.814Z,2.50
2018-08-09T13:02:14.537Z,4.10
2018-08-09T13:04:43.377Z,7.23
2018-08-09T13:07:12.123Z,5.87
2018-08-09T13:09:41.029Z,6.40
2018-08-09T13:12:09.816Z,3.10
2018-08-09T13:14:38.560Z,4.60
2018-08-09T13:17:08.433Z,18.20
2018-08-09T13:19:38.324Z,5.70
2018-08-09T13:22:08.067Z,20.83
2018-08-09T13:24:38.642Z,2.83
2018-08-09T13:27:08.235Z,6.93
2018-08-09T13:29:39.817Z,5.07
2018-08-09T13:32:08.914Z,12.17
2018-08-09T13:34:37.744Z,15.00
2018-08-09T13:37:06.598Z,8.47
2018-08-09T13:39:35.712Z,8.20
2018-08-09T13:42:04.580Z,4.33
2018-08-09T13:44:33.298Z,3.57
2018-08-09T13:47:02.049Z,14.30
2018-08-09T13:49:30.800Z,4.50
2018-08-09T13:51:59.551Z,5.40
2018-08-09T13:54:28.352Z,6.37
2018-08-09T13:56:57.087Z,3.77
2018-08-09T13:59:25.829Z,8.37
2018-08-09T14:01:54.578Z,18.03
2018-08-09T14:04:23.445Z,5.60
2018-08-09T14:06:52.233Z,4.83
2018-08-09T14:09:21.722Z,5.03
2018-08-09T14:11:50.588Z,2.20
2018-08-09T14:14:19.397Z,3.20
2018-08-09T14:16:48.110Z,10.87
2018-08-09T14:19:16.842Z,4.23
2018-08-09T14:21:45.726Z,9.23
2018-08-09T14:24:14.541Z,4.37
2018-08-09T14:26:43.490Z,6.03
2018-08-09T14:29:12.275Z,2.27
2018-08-09T14:31:41.021Z,5.27
2018-08-09T14:34:09.812Z,5.23
2018-08-09T14:36:38.585Z,5.13
2018-08-09T14:39:09.553Z,2.93
2018-08-09T14:41:38.380Z,4.40
2018-08-09T14:44:07.582Z,20.07
2018-08-09T14:46:36.318Z,5.17
2018-08-09T14:49:05.200Z,6.50
2018-08-09T14:51:33.967Z,3.97
2018-08-09T14:54:02.698Z,5.07
2018-08-09T14:56:31.408Z,14.53
2018-08-09T14:59:00.268Z,5.07
2018-08-09T15:01:28.981Z,6.90
2018-08-09T15:03:57.718Z,2.87
2018-08-09T15:06:26.421Z,6.57
2018-08-09T15:08:55.187Z,3.13
2018-08-09T15:11:24.152Z,3.23
2018-08-09T15:13:52.866Z,2.07
2018-08-09T15:16:21.593Z,9.53
2018-08-09T15:18:50.302Z,12.53
2018-08-09T15:21:19.058Z,3.77
2018-08-09T15:23:47.888Z,1.90
2018-08-09T15:26:16.731Z,9.07
2018-08-09T15:28:45.522Z,3.90
2018-08-09T15:31:14.309Z,1.80
2018-08-09T15:33:43.057Z,3.17
2018-08-09T15:36:11.911Z,20.83
2018-08-09T15:38:41.090Z,3.90
2018-08-09T15:41:10.119Z,3.63
2018-08-09T15:43:38.956Z,5.07
2018-08-09T15:46:08.232Z,5.97
2018-08-09T15:48:37.498Z,3.37
2018-08-09T15:51:06.226Z,6.80
2018-08-09T15:53:35.102Z,3.87
2018-08-09T15:56:03.849Z,8.93
2018-08-09T15:58:32.607Z,10.10
2018-08-09T16:01:01.370Z,23.13
2018-08-09T16:03:30.102Z,7.40
2018-08-09T16:05:58.836Z,4.90
2018-08-09T16:08:27.542Z,5.53
2018-08-09T16:10:56.275Z,4.10
2018-08-09T16:13:25.035Z,5.00
2018-08-09T16:15:53.821Z,4.10
2018-08-09T16:18:22.563Z,7.00
2018-08-09T16:20:51.395Z,4.60
2018-08-09T16:23:20.194Z,15.30
2018-08-09T16:25:49.010Z,29.77
2018-08-09T16:28:17.751Z,26.93
2018-08-09T16:30:46.473Z,20.27
2018-08-09T16:33:15.186Z,7.40
2018-08-09T16:35:43.947Z,8.87
2018-08-09T16:38:12.748Z,12.03
2018-08-09T16:40:41.489Z,13.07
2018-08-09T16:43:10.216Z,19.80
2018-08-09T16:45:39.036Z,29.07
2018-08-09T16:48:08.010Z,15.27
2018-08-09T16:50:38.502Z,8.47
2018-08-09T16:53:07.288Z,6.43
2018-08-09T16:55:36.029Z,11.63
2018-08-09T16:58:04.782Z,14.60
2018-08-09T17:00:33.611Z,14.37
2018-08-09T17:03:02.760Z,9.87
2018-08-09T17:05:31.505Z,6.53
2018-08-09T17:08:00.296Z,20.73
2018-08-09T17:10:31.382Z,5.50
2018-08-09T17:13:00.249Z,19.37
2018-08-09T17:15:29.917Z,21.97
2018-08-09T17:17:59.507Z,27.60
2018-08-09T17:20:30.357Z,34.23
2018-08-09T17:22:59.513Z,18.90
2018-08-09T17:25:28.877Z,20.03
2018-08-09T17:27:57.718Z,11.73
2018-08-09T17:30:27.608Z,10.20
2018-08-09T17:32:57.366Z,13.83
2018-08-09T17:35:26.164Z,6.77
2018-08-09T17:37:55.144Z,20.53
2018-08-09T17:40:27.096Z,11.73
2018-08-09T17:42:56.925Z,4.40
2018-08-09T17:45:27.237Z,14.80
2018-08-09T17:47:56.037Z,8.87
2018-08-09T17:50:24.810Z,21.00
2018-08-09T17:52:53.953Z,27.53
2018-08-09T17:55:22.749Z,12.30
2018-08-09T17:57:51.520Z,10.03
2018-08-09T18:00:27.791Z,11.43
2018-08-09T18:02:56.627Z,11.23
2018-08-09T18:05:25.549Z,13.83
2018-08-09T18:07:55.094Z,14.80
2018-08-09T18:10:28.267Z,9.93
2018-08-09T18:12:57.045Z,7.80
2018-08-09T18:15:27.185Z,29.13
2018-08-09T18:17:56.435Z,9.83
2018-08-09T18:20:27.344Z,13.73
2018-08-09T18:22:56.968Z,13.40
2018-08-09T18:25:25.789Z,18.73
2018-08-09T18:27:54.537Z,13.30
2018-08-09T18:30:23.346Z,9.57
2018-08-09T18:32:52.211Z,6.90
2018-08-09T18:35:21.137Z,9.83
2018-08-09T18:37:49.931Z,11.50
2018-08-09T18:40:20.725Z,7.17
2018-08-09T18:42:49.495Z,10.40
2018-08-09T18:45:18.242Z,14.23
2018-08-09T18:47:47.069Z,9.43
2018-08-09T18:50:20.008Z,10.23
2018-08-09T18:52:48.864Z,10.63
2018-08-09T18:55:18.656Z,5.77
2018-08-09T18:57:47.409Z,7.57
2018-08-09T19:00:19.482Z,8.70
2018-08-09T19:02:48.782Z,4.97
2018-08-09T19:05:17.860Z,25.27
2018-08-09T19:07:46.704Z,17.87
2018-08-09T19:10:28.192Z,16.33
2018-08-09T19:12:56.964Z,8.80
2018-08-09T19:15:25.775Z,18.67
2018-08-09T19:17:54.732Z,11.67
2018-08-09T19:20:25.580Z,13.60
2018-08-09T19:22:54.624Z,11.13
2018-08-09T19:25:23.382Z,19.23
2018-08-09T19:27:52.209Z,21.40
2018-08-09T19:30:23.774Z,19.80
2018-08-09T19:32:52.585Z,24.77
2018-08-09T19:35:22.015Z,12.60
2018-08-09T19:37:50.847Z,24.97
2018-08-09T19:40:24.006Z,13.10
2018-08-09T19:42:52.839Z,20.03
2018-08-09T19:45:21.712Z,9.17
2018-08-09T19:47:50.620Z,6.03
2018-08-09T19:50:20.771Z,5.47
2018-08-09T19:52:49.572Z,9.17
2018-08-09T19:55:19.726Z,11.90
2018-08-09T19:57:49.392Z,7.03
2018-08-09T20:00:20.356Z,6.80
2018-08-09T20:02:49.724Z,12.57
2018-08-09T20:05:18.685Z,10.40
2018-08-09T20:07:47.540Z,5.77
2018-08-09T20:10:16.650Z,18.30
2018-08-09T20:12:46.478Z,13.13
2018-08-09T20:15:17.215Z,24.50
2018-08-09T20:17:46.052Z,17.53
2018-08-09T20:20:16.210Z,9.63
2018-08-09T20:22:45.160Z,13.53
2018-08-09T20:25:14.481Z,14.57
2018-08-09T20:27:43.818Z,5.17
2018-08-09T20:30:12.291Z,5.83
2018-08-09T20:32:41.394Z,5.70
2018-08-09T20:35:12.347Z,7.27
2018-08-09T20:37:41.525Z,13.43
2018-08-09T20:40:11.259Z,7.90
2018-08-09T20:42:40.441Z,4.33
2018-08-09T20:45:11.117Z,15.30
2018-08-09T20:47:39.917Z,5.20
2018-08-09T20:50:13.197Z,10.43
2018-08-09T20:52:42.725Z,17.27
2018-08-09T20:55:12.675Z,7.33
2018-08-09T20:57:42.531Z,10.20
2018-08-09T21:00:14.057Z,5.07
2018-08-09T21:02:43.223Z,7.87
2018-08-09T21:05:21.597Z,25.33
2018-08-09T21:07:51.108Z,12.90
2018-08-09T21:10:19.849Z,6.87
2018-08-09T21:12:48.632Z,8.07
2018-08-09T21:15:18.367Z,12.80
2018-08-09T21:17:47.160Z,11.57
2018-08-09T21:20:16.283Z,7.93
2018-08-09T21:22:46.402Z,7.67
2018-08-09T21:25:15.114Z,6.63
2018-08-09T21:27:44.222Z,13.60
2018-08-09T21:30:15.463Z,13.73
2018-08-09T21:32:44.663Z,7.93
2018-08-09T21:35:13.383Z,11.33
2018-08-09T21:37:42.838Z,9.23
2018-08-09T21:40:12.456Z,7.73
2018-08-09T21:42:41.250Z,12.73
2018-08-09T21:45:12.577Z,13.50
2018-08-09T21:47:41.308Z,12.33
2018-08-09T21:50:13.173Z,8.63
2018-08-09T21:52:42.358Z,10.63
2018-08-09T21:55:12.060Z,6.37
2018-08-09T21:57:41.046Z,8.90
2018-08-09T22:00:50.233Z,10.03
2018-08-09T22:03:21.322Z,6.70
2018-08-09T22:05:55.186Z,10.50
2018-08-09T22:08:29.041Z,7.37
2018-08-09T22:11:03.166Z,6.97
2018-08-09T22:13:37.112Z,5.27
2018-08-09T22:16:11.441Z,5.67
2018-08-09T22:18:45.469Z,21.30
2018-08-09T22:21:19.314Z,9.73
2018-08-09T22:23:48.505Z,8.27
2018-08-09T22:26:17.209Z,6.97
2018-08-09T22:28:46.126Z,7.10
2018-08-09T22:31:15.477Z,12.40
2018-08-09T22:33:44.294Z,8.63
2018-08-09T22:36:13.043Z,11.10
2018-08-09T22:38:41.749Z,6.67
2018-08-09T22:41:10.510Z,12.13
2018-08-09T22:43:39.245Z,10.80
2018-08-09T22:46:07.974Z,8.70
2018-08-09T22:48:36.709Z,5.70
2018-08-09T22:51:05.667Z,13.00
2018-08-09T22:53:34.451Z,16.13
2018-08-09T22:56:03.181Z,8.67
2018-08-09T22:58:31.901Z,6.83
2018-08-09T23:01:00.647Z,9.23
2018-08-09T23:03:29.353Z,5.97
2018-08-09T23:05:58.119Z,11.43
2018-08-09T23:08:26.809Z,6.40
2018-08-09T23:10:55.522Z,12.53
2018-08-09T23:13:24.264Z,5.13
2018-08-09T23:15:52.977Z,15.57
2018-08-09T23:18:21.874Z,14.90
2018-08-09T23:20:50.579Z,6.40
2018-08-09T23:23:19.269Z,4.73
2018-08-09T23:25:48.094Z,6.40
2018-08-09T23:28:16.870Z,6.70
2018-08-09T23:30:45.553Z,6.73
2018-08-09T23:33:14.239Z,11.07
2018-08-09T23:35:42.933Z,15.80
2018-08-09T23:38:11.677Z,10.37
2018-08-09T23:40:40.395Z,13.03
2018-08-09T23:43:09.077Z,6.77
2018-08-09T23:45:37.772Z,12.10
2018-08-09T23:48:06.678Z,12.97
2018-08-09T23:50:35.437Z,6.90
2018-08-09T23:53:04.277Z,8.10
2018-08-09T23:55:32.969Z,16.27
2018-08-09T23:58:01.676Z,12.23
